Time;durP1;ratioP1;P1;durP2;ratioP2;P2;SDS_P1;SDS_P2;PMS_P1;PMS_P2;Temp;Humidity;BMP_temperature;BMP_pressure;BME280_temperature;BME280_humidity;BME280_pressure;Samples;Min_cycle;Max_cycle;Signal;HPM_P1;HPM_P2
2022/05/16 00:01:35;;;;;;;18.35;4.60;;;;;;;17.56;58.50;101322.94;10349045;28;20034;-77
2022/05/16 00:06:36;;;;;;;4.78;3.55;;;;;;;17.56;58.61;101328.41;10349149;28;20062;-77
2022/05/16 00:11:36;;;;;;;7.63;3.25;;;;;;;17.49;59.00;101321.38;10316093;28;20042;-78
2022/05/16 00:16:37;;;;;;;7.88;3.00;;;;;;;17.46;59.51;101311.72;10348460;28;20042;-78
2022/05/16 00:21:37;;;;;;;7.72;4.35;;;;;;;17.35;59.61;101302.38;10355335;28;20065;-78
2022/05/16 00:26:39;;;;;;;5.95;4.38;;;;;;;17.26;60.66;101301.06;10350777;28;20038;-77
2022/05/16 00:31:39;;;;;;;5.05;3.45;;;;;;;17.24;60.49;101288.66;10352178;28;20031;-77
2022/05/16 00:36:42;;;;;;;10.60;2.63;;;;;;;17.14;61.64;101279.13;10335443;28;20098;-78
2022/05/16 00:41:43;;;;;;;10.90;4.47;;;;;;;17.17;61.03;101286.03;10356357;28;20026;-78
2022/05/16 00:46:44;;;;;;;9.02;4.43;;;;;;;17.10;61.67;101279.78;10339892;28;20038;-77
2022/05/16 00:51:58;;;;;;;5.30;3.58;;;;;;;16.99;62.75;101258.69;10352116;28;20038;-77
2022/05/16 00:57:00;;;;;;;14.57;3.78;;;;;;;16.98;62.90;101267.97;10352759;28;20042;-77
2022/05/16 01:07:31;;;;;;;15.82;4.97;;;;;;;16.79;64.23;101257.06;10339309;28;20034;-77
2022/05/16 01:12:35;;;;;;;12.35;3.97;;;;;;;16.73;64.92;101252.47;10356947;28;20042;-79
2022/05/16 01:17:35;;;;;;;6.47;3.70;;;;;;;16.67;65.42;101243.28;10355105;28;20475;-78
2022/05/16 01:22:42;;;;;;;11.27;4.30;;;;;;;16.65;65.61;101252.78;10361310;28;20035;-78
2022/05/16 01:27:47;;;;;;;;;;;;;;;16.60;66.26;101244.44;10357253;28;20114;-77
2022/05/16 01:32:48;;;;;;;7.45;3.95;;;;;;;16.55;66.50;101245.13;10359271;28;19909;-78
2022/05/16 01:43:07;;;;;;;4.25;3.08;;;;;;;16.38;67.52;101239.44;10356112;28;20050;-78
2022/05/16 01:48:08;;;;;;;5.80;3.40;;;;;;;16.28;68.29;101225.47;10360851;28;20030;-77
2022/05/16 01:53:09;;;;;;;8.63;4.63;;;;;;;16.17;69.33;101228.94;10355956;28;20037;-77
2022/05/16 01:58:10;;;;;;;11.52;4.68;;;;;;;16.15;68.66;101231.09;10354826;28;20427;-77
2022/05/16 02:03:11;;;;;;;14.70;5.13;;;;;;;16.03;70.16;101218.16;10329536;28;20508;-77
2022/05/16 02:08:12;;;;;;;18.48;3.50;;;;;;;16.03;69.06;101223.63;10346430;28;20063;-77
2022/05/16 02:13:12;;;;;;;10.30;3.95;;;;;;;15.90;70.59;101218.28;10310002;28;20504;-74
2022/05/16 02:18:13;;;;;;;14.48;5.20;;;;;;;15.86;70.79;101218.94;10334185;28;20096;-71
2022/05/16 02:28:32;;;;;;;7.03;4.50;;;;;;;15.73;71.23;101189.88;10334869;28;20042;-71
2022/05/16 02:33:33;;;;;;;6.32;3.63;;;;;;;15.58;73.57;101176.56;10335214;28;20429;-72
2022/05/16 02:38:33;;;;;;;7.18;4.20;;;;;;;15.58;73.07;101173.84;10334900;28;20041;-72
2022/05/16 02:43:33;;;;;;;10.02;5.20;;;;;;;15.55;73.69;101169.66;10334238;28;20031;-72
2022/05/16 02:48:34;;;;;;;4.80;4.18;;;;;;;15.47;73.63;101167.19;10334626;28;20093;-71
2022/05/16 02:53:34;;;;;;;9.43;4.95;;;;;;;15.43;73.38;101156.97;10333196;28;20425;-71
2022/05/16 02:58:35;;;;;;;7.95;3.67;;;;;;;15.30;75.49;101160.63;10333726;28;20034;-72
2022/05/16 03:03:35;;;;;;;8.40;5.20;;;;;;;15.40;73.42;101163.69;10334244;28;20092;-72
2022/05/16 03:08:37;;;;;;;9.52;4.35;;;;;;;15.31;75.73;101152.22;10333149;28;20041;-72
2022/05/16 03:13:37;;;;;;;14.48;4.65;;;;;;;15.35;75.48;101153.47;10316180;28;20050;-72
2022/05/16 03:18:38;;;;;;;21.83;5.47;;;;;;;15.39;74.28;101159.31;10333198;28;20059;-72
2022/05/16 03:23:38;;;;;;;14.38;3.63;;;;;;;15.45;71.41;101163.88;10333790;28;20470;-72
2022/05/16 03:28:39;;;;;;;5.05;3.97;;;;;;;15.42;73.08;101180.69;10333244;28;20045;-73
2022/05/16 03:33:39;;;;;;;6.22;4.70;;;;;;;15.42;74.17;101158.03;10333180;28;20075;-72
2022/05/16 03:43:58;;;;;;;19.60;5.43;;;;;;;15.47;72.53;101158.16;10332938;28;20039;-73
2022/05/16 03:48:58;;;;;;;6.97;4.75;;;;;;;15.40;72.05;101163.69;10332914;28;20454;-71
2022/05/16 03:53:59;;;;;;;9.93;5.03;;;;;;;15.29;74.63;101151.63;10315385;28;20034;-72
2022/05/16 03:58:59;;;;;;;9.23;5.55;;;;;;;15.27;73.89;101152.91;10316449;28;20117;-72
2022/05/16 04:04:00;;;;;;;6.63;4.47;;;;;;;15.34;74.62;101153.66;10332313;28;20125;-72
2022/05/16 04:09:00;;;;;;;7.28;5.07;;;;;;;15.43;75.34;101141.41;10340337;28;20045;-72
2022/05/16 04:14:01;;;;;;;5.68;4.35;;;;;;;15.64;75.54;101142.91;10340656;28;20045;-72
2022/05/16 04:19:01;;;;;;;8.75;4.60;;;;;;;15.88;73.37;101156.75;10322204;28;20058;-73
2022/05/16 04:24:02;;;;;;;9.15;4.93;;;;;;;16.01;72.61;101148.41;10339172;28;20105;-72
2022/05/16 04:29:03;;;;;;;12.07;4.25;;;;;;;16.04;73.95;101139.75;10340042;28;20045;-74
2022/05/16 04:34:09;;;;;;;6.05;4.25;;;;;;;16.12;72.72;101144.13;10321753;28;20460;-73
2022/05/16 04:39:09;;;;;;;14.10;5.93;;;;;;;16.29;71.84;101150.63;10339972;28;20034;-75
2022/05/16 04:44:10;;;;;;;9.75;3.97;;;;;;;16.47;71.02;101158.78;10338940;28;20047;-74
2022/05/16 04:49:10;;;;;;;11.23;5.68;;;;;;;16.54;71.82;101153.22;10338623;28;20034;-74
2022/05/16 04:54:10;;;;;;;20.02;5.22;;;;;;;16.72;70.46;101157.84;10338806;28;20034;-72
2022/05/16 04:59:12;;;;;;;10.18;4.95;;;;;;;16.84;71.50;101157.91;10337234;28;20038;-74
2022/05/16 05:04:13;;;;;;;17.27;5.75;;;;;;;16.95;71.92;101148.91;10337645;28;20450;-70
2022/05/16 05:09:13;;;;;;;13.20;5.70;;;;;;;17.19;69.19;101156.06;10338046;28;20038;-74
2022/05/16 05:14:32;;;;;;;8.70;4.50;;;;;;;17.17;69.42;101160.13;10319716;28;20034;-73
2022/05/16 05:19:33;;;;;;;7.65;5.20;;;;;;;17.06;70.83;101156.28;10336755;28;20335;-74
2022/05/16 05:24:34;;;;;;;6.00;4.35;;;;;;;17.17;68.64;101168.34;10336197;28;20532;-73
2022/05/16 05:29:34;;;;;;;14.55;5.28;;;;;;;17.20;69.97;101170.63;10337196;28;20042;-73
2022/05/16 05:34:38;;;;;;;12.32;5.72;;;;;;;17.28;69.38;101177.66;10336606;28;20042;-74
2022/05/16 05:39:39;;;;;;;14.27;4.82;;;;;;;17.34;68.39;101185.75;10336180;28;20469;-73
2022/05/16 05:44:40;;;;;;;8.15;4.68;;;;;;;17.37;69.60;101201.69;10336551;28;20039;-73
2022/05/16 05:49:40;;;;;;;14.00;5.25;;;;;;;17.42;67.45;101200.97;10335912;28;20038;-74
2022/05/16 05:54:44;;;;;;;9.75;5.10;;;;;;;17.51;66.73;101204.22;10334601;28;20041;-73
2022/05/16 05:59:45;;;;;;;4.82;4.38;;;;;;;17.60;66.19;101208.28;10318166;28;20533;-74
2022/05/16 06:04:45;;;;;;;16.13;5.93;;;;;;;17.62;66.56;101197.94;10334776;28;20096;-73
2022/05/16 06:09:46;;;;;;;11.38;5.70;;;;;;;17.74;67.67;101203.41;10317710;28;20152;-74
2022/05/16 06:14:46;;;;;;;17.35;6.40;;;;;;;17.82;67.35;101205.81;10335486;28;20043;-73
2022/05/16 06:19:47;;;;;;;9.40;5.53;;;;;;;17.98;67.79;101209.75;10335336;28;20046;-74
2022/05/16 06:30:07;;;;;;;16.98;5.35;;;;;;;18.49;67.11;101208.94;10334528;28;20034;-73
2022/05/16 06:35:08;;;;;;;11.07;6.28;;;;;;;18.92;67.52;101212.28;10334279;28;20054;-73
2022/05/16 06:40:09;;;;;;;9.38;5.47;;;;;;;19.48;65.82;101203.13;10334363;28;20374;-73
2022/05/16 06:45:10;;;;;;;9.13;5.28;;;;;;;20.33;63.76;101208.53;10334687;28;20042;-74
2022/05/16 06:50:10;;;;;;;6.20;5.38;;;;;;;21.16;61.11;101214.75;10333743;28;20042;-74
2022/05/16 06:55:10;;;;;;;15.50;5.70;;;;;;;21.27;59.71;101219.25;10333109;28;20545;-74
2022/05/16 07:00:11;;;;;;;9.10;5.68;;;;;;;20.96;61.19;101220.88;10334297;28;20042;-73
2022/05/16 07:05:12;;;;;;;7.80;6.05;;;;;;;20.77;61.84;101214.91;10333113;28;20375;-73
2022/05/16 07:10:13;;;;;;;9.80;5.82;;;;;;;20.77;62.52;101212.16;10334520;28;20035;-73
2022/05/16 07:15:13;;;;;;;8.27;5.18;;;;;;;21.05;61.86;101224.81;10333522;28;20034;-74
2022/05/16 07:20:14;;;;;;;12.13;5.57;;;;;;;21.49;61.45;101229.41;10334568;28;20091;-74
2022/05/16 07:25:17;;;;;;;9.32;5.90;;;;;;;21.85;61.76;101232.44;10334124;28;20464;-73
2022/05/16 07:30:17;;;;;;;8.60;4.43;;;;;;;21.90;61.84;101240.75;10333195;28;20038;-75
2022/05/16 07:35:19;;;;;;;8.93;3.80;;;;;;;22.44;60.94;101246.91;10333368;28;20034;-74
2022/05/16 07:40:21;;;;;;;5.57;4.78;;;;;;;24.69;58.08;101229.59;10336360;28;20038;-74
2022/05/16 07:45:22;;;;;;;5.93;4.18;;;;;;;25.07;56.43;101225.22;10340409;28;20485;-73
2022/05/16 07:50:23;;;;;;;6.25;4.53;;;;;;;25.54;54.97;101242.38;10308288;28;20072;-73
2022/05/16 07:55:24;;;;;;;12.55;4.72;;;;;;;25.87;53.40;101243.50;10340799;28;20030;-73
2022/05/16 08:00:24;;;;;;;5.60;4.43;;;;;;;26.78;52.87;101252.78;10322905;28;20049;-74
2022/05/16 08:05:25;;;;;;;25.50;4.33;;;;;;;27.46;52.62;101240.41;10325193;28;20042;-74
2022/05/16 08:10:29;;;;;;;3.72;3.03;;;;;;;26.62;52.35;101248.56;10339988;28;20264;-73
2022/05/16 08:15:30;;;;;;;4.00;3.53;;;;;;;26.89;53.87;101248.72;10339459;28;20034;-74
2022/05/16 08:20:30;;;;;;;4.68;3.63;;;;;;;27.49;50.45;101244.53;10343317;28;20095;-73
2022/05/16 08:25:30;;;;;;;6.78;2.90;;;;;;;29.09;49.62;101246.78;10348048;28;20066;-73
2022/05/16 08:30:31;;;;;;;9.77;3.33;;;;;;;29.97;44.97;101240.72;10330200;28;20034;-74
2022/05/16 08:35:32;;;;;;;2.90;2.30;;;;;;;30.86;46.57;101236.81;10322551;28;20081;-74
2022/05/16 08:40:59;;;;;;;2.70;2.45;;;;;;;31.83;45.40;101242.03;10321398;28;20061;-73
2022/05/16 08:46:24;;;;;;;6.20;2.53;;;;;;;32.25;40.60;101241.41;10306840;28;20040;-73
2022/05/16 08:51:26;;;;;;;3.20;2.88;;;;;;;32.58;39.30;101231.22;10328606;28;20046;-73
2022/05/16 08:56:31;;;;;;;9.75;3.08;;;;;;;31.40;41.67;101267.31;10338497;28;20030;-72
2022/05/16 09:01:38;;;;;;;4.72;2.35;;;;;;;31.67;38.41;101277.31;10321364;28;20277;-73
2022/05/16 09:07:07;;;;;;;2.15;2.03;;;;;;;32.19;38.75;101291.22;10321575;28;20393;-72
2022/05/16 09:12:42;;;;;;;9.73;2.13;;;;;;;31.70;37.84;101299.06;10338346;28;20426;-73
2022/05/16 09:18:06;;;;;;;7.65;2.85;;;;;;;31.33;38.92;101315.34;10326468;28;20370;-73
2022/05/16 09:23:19;;;;;;;4.63;2.83;;;;;;;30.42;41.42;101321.66;10338842;28;20530;-72
2022/05/16 09:28:34;;;;;;;4.57;3.70;;;;;;;31.34;38.71;101325.41;10337134;28;20033;-71
2022/05/16 09:33:34;;;;;;;7.43;3.70;;;;;;;31.25;39.31;101344.94;10323153;28;20072;-72
2022/05/16 09:38:38;;;;;;;3.20;3.00;;;;;;;29.41;42.19;101360.94;10320151;28;20049;-72
2022/05/16 09:43:43;;;;;;;20.08;4.15;;;;;;;28.11;45.72;101350.09;10337274;28;20274;-71
2022/05/16 09:48:44;;;;;;;6.97;3.92;;;;;;;26.56;49.30;101346.94;10320919;28;20030;-72
2022/05/16 09:53:44;;;;;;;11.50;4.55;;;;;;;25.53;52.34;101360.81;10319609;28;20133;-72
2022/05/16 09:58:50;;;;;;;6.18;4.07;;;;;;;23.92;59.59;101359.81;10335520;28;20038;-70
2022/05/16 10:03:50;;;;;;;5.20;3.93;;;;;;;22.63;64.75;101388.06;10334619;28;20117;-72
2022/05/16 10:08:50;;;;;;;5.97;3.03;;;;;;;21.82;68.27;101405.56;10318919;28;20027;-72
2022/05/16 10:13:51;;;;;;;7.55;3.92;;;;;;;21.51;78.18;101436.66;10318804;28;20053;-72
2022/05/16 10:18:57;;;;;;;8.82;4.38;;;;;;;21.12;78.62;101462.31;10333954;28;20054;-72
2022/05/16 10:23:59;;;;;;;25.05;8.23;;;;;;;21.03;83.73;101480.34;10334436;28;20470;-73
2022/05/16 10:29:08;;;;;;;19.75;8.05;;;;;;;21.02;83.61;101484.16;10334620;28;20463;-73
2022/05/16 10:34:15;;;;;;;9.30;8.13;;;;;;;20.95;85.39;101483.53;10333993;28;20473;-73
2022/05/16 10:39:35;;;;;;;15.93;10.60;;;;;;;21.02;85.78;101495.19;10317017;28;20034;-73
2022/05/16 10:44:59;;;;;;;15.68;11.90;;;;;;;21.17;84.29;101504.78;10317279;28;20042;-72
2022/05/16 10:50:08;;;;;;;29.92;14.15;;;;;;;21.40;85.20;101521.09;10334075;28;20385;-71
2022/05/16 10:55:08;;;;;;;20.67;10.05;;;;;;;21.12;84.74;101519.28;10316941;28;20030;-74
2022/05/16 11:00:11;;;;;;;20.83;11.52;;;;;;;20.96;84.74;101523.72;10300481;28;20045;-73
2022/05/16 11:05:39;;;;;;;11.75;10.23;;;;;;;20.93;85.18;101529.75;10315609;28;20033;-73
2022/05/16 11:10:45;;;;;;;9.15;6.60;;;;;;;20.44;84.44;101532.19;10317212;28;20042;-72
2022/05/16 11:15:56;;;;;;;14.52;7.40;;;;;;;20.12;85.64;101545.63;10331510;28;20030;-72
2022/05/16 11:21:24;;;;;;;14.02;6.65;;;;;;;19.70;89.53;101551.38;10331514;28;20077;-72
2022/05/16 11:26:47;;;;;;;18.83;8.55;;;;;;;18.64;93.15;101558.72;10332504;28;20058;-71
2022/05/16 11:32:06;;;;;;;16.95;8.90;;;;;;;18.27;96.93;101573.38;10316083;28;20385;-72
2022/05/16 11:37:33;;;;;;;15.82;10.88;;;;;;;17.94;97.52;101570.25;10316603;28;20034;-72
2022/05/16 11:42:38;;;;;;;12.85;10.02;;;;;;;17.76;99.03;101577.38;10316929;28;20022;-71
2022/05/16 11:47:48;;;;;;;25.98;15.00;;;;;;;17.86;99.80;101569.50;10316952;28;20034;-72
2022/05/16 11:53:14;;;;;;;24.98;14.85;;;;;;;18.36;98.35;101569.25;10331342;28;20062;-71
2022/05/16 12:04:10;;;;;;;27.50;14.40;;;;;;;19.27;93.58;101569.06;10300262;28;20045;-73
2022/05/16 12:09:16;;;;;;;20.63;13.20;;;;;;;19.61;92.53;101578.34;10333136;28;20038;-72
2022/05/16 12:14:29;;;;;;;13.70;11.17;;;;;;;19.92;88.98;101590.06;10332105;28;20026;-72
2022/05/16 12:19:37;;;;;;;17.95;11.40;;;;;;;20.66;86.01;101592.88;10314627;28;20133;-72
2022/05/16 12:24:53;;;;;;;10.93;9.65;;;;;;;20.98;84.72;101598.66;10316105;28;20034;-73
2022/05/16 12:29:58;;;;;;;12.35;8.57;;;;;;;21.91;78.85;101600.88;10322131;28;20481;-72
2022/05/16 12:35:12;;;;;;;8.15;6.22;;;;;;;22.15;75.50;101596.75;10339299;28;20042;-72
2022/05/16 12:40:59;;;;;;;9.07;6.40;;;;;;;22.69;75.68;101604.28;10323285;28;20030;-73
2022/05/16 12:46:15;;;;;;;6.33;4.83;;;;;;;23.34;68.28;101605.91;10338218;28;20061;-73
2022/05/16 12:51:35;;;;;;;9.17;5.73;;;;;;;23.50;68.13;101589.44;10338191;28;20256;-73
2022/05/16 12:56:48;;;;;;;7.55;5.93;;;;;;;24.72;64.12;101597.38;10322198;28;20037;-73
2022/05/16 13:02:01;;;;;;;6.47;5.80;;;;;;;25.32;59.63;101595.72;10321514;28;20077;-73
2022/05/16 13:07:13;;;;;;;8.13;4.72;;;;;;;25.01;60.09;101611.53;10337286;28;20037;-72
2022/05/16 13:12:35;;;;;;;7.00;5.78;;;;;;;24.16;61.42;101614.69;10321011;28;20112;-73
2022/05/16 13:17:41;;;;;;;9.70;6.18;;;;;;;23.14;63.88;101619.59;10320602;28;20049;-73
2022/05/16 13:22:43;;;;;;;11.10;5.67;;;;;;;22.90;64.77;101627.38;10336218;28;20105;-73
2022/05/16 13:33:29;;;;;;;8.40;3.88;;;;;;;22.02;67.17;101642.13;10337241;28;20045;-73
2022/05/16 13:38:50;;;;;;;11.32;4.78;;;;;;;22.55;66.59;101638.88;10302988;28;20428;-73
2022/05/16 13:43:51;;;;;;;11.68;3.95;;;;;;;23.24;63.81;101652.00;10336922;28;20038;-74
2022/05/16 13:49:00;;;;;;;5.60;4.13;;;;;;;23.21;62.26;101642.31;10320284;28;20063;-73
2022/05/16 13:54:04;;;;;;;8.25;4.45;;;;;;;22.64;63.82;101648.38;10336632;28;20193;-74
2022/05/16 13:59:06;;;;;;;9.07;4.80;;;;;;;22.23;65.31;101650.66;10336887;28;20117;-74
2022/05/16 14:04:13;;;;;;;12.18;3.85;;;;;;;21.85;66.58;101654.28;10337186;28;20050;-74
2022/05/16 14:09:26;;;;;;;9.13;5.00;;;;;;;22.01;67.10;101656.97;10335831;28;20097;-74
2022/05/16 14:14:27;;;;;;;17.27;4.35;;;;;;;22.38;66.73;101661.91;10334247;28;20053;-75
2022/05/16 14:19:43;;;;;;;18.92;5.55;;;;;;;22.25;66.81;101665.88;10302682;28;20125;-74
2022/05/16 14:25:04;;;;;;;5.40;3.60;;;;;;;22.60;65.48;101663.81;10335131;28;20441;-74
2022/05/16 14:30:22;;;;;;;14.27;3.80;;;;;;;22.58;64.95;101672.31;10334623;28;20450;-73
2022/05/16 14:35:23;;;;;;;8.63;3.42;;;;;;;22.54;65.21;101675.88;10333503;28;20030;-72
2022/05/16 14:40:24;;;;;;;12.20;3.58;;;;;;;22.25;65.70;101689.88;10333380;28;20409;-74
2022/05/16 14:46:42;;;;;;;11.88;4.03;;;;;;;21.81;66.86;101696.16;10334665;28;20031;-74
2022/05/16 14:50:45;;;;;;;12.48;4.35;;;;;;;21.66;67.91;101690.41;10332651;28;20034;-73
2022/05/16 14:55:47;;;;;;;3.03;2.72;;;;;;;21.47;68.12;101698.09;10332656;28;20053;-73
2022/05/16 15:06:07;;;;;;;8.65;4.40;;;;;;;21.10;70.06;101687.53;10334559;28;20446;-73
2022/05/16 15:11:07;;;;;;;4.25;3.85;;;;;;;21.21;70.13;101695.97;10336308;28;20042;-73
2022/05/16 15:16:08;;;;;;;12.13;4.50;;;;;;;21.43;69.08;101691.41;10334165;28;20525;-73
2022/05/16 15:21:08;;;;;;;14.73;3.85;;;;;;;21.27;68.21;101694.97;10332139;28;20409;-73
2022/05/16 15:26:09;;;;;;;19.25;4.15;;;;;;;21.26;67.41;101709.84;10333186;28;20117;-73
2022/05/16 15:31:09;;;;;;;7.88;3.22;;;;;;;20.91;68.86;101710.88;10316851;28;20169;-73
2022/05/16 15:36:10;;;;;;;5.95;2.83;;;;;;;20.90;69.25;101715.56;10333035;28;20446;-73
2022/05/16 15:41:10;;;;;;;8.60;4.85;;;;;;;20.96;68.62;101716.47;10333169;28;20037;-73
2022/05/16 15:46:12;;;;;;;11.70;5.45;;;;;;;20.90;69.60;101718.31;10332095;28;20161;-73
2022/05/16 15:51:13;;;;;;;9.35;4.13;;;;;;;20.77;70.28;101729.63;10331775;28;20096;-73
2022/05/16 15:56:15;;;;;;;14.88;4.00;;;;;;;20.65;71.06;101734.31;10315207;28;20088;-73
2022/05/16 16:01:16;;;;;;;11.75;4.03;;;;;;;20.54;72.04;101736.00;10334904;28;20034;-73
2022/05/16 16:11:40;;;;;;;10.75;4.32;;;;;;;21.11;71.04;101736.03;10339796;28;20490;-77
2022/05/16 16:16:42;;;;;;;7.72;3.35;;;;;;;21.57;69.09;101736.88;10323408;28;20035;-77
2022/05/16 16:21:43;;;;;;;7.07;3.85;;;;;;;21.55;68.33;101728.00;10340736;28;20096;-77
2022/05/16 16:26:43;;;;;;;9.90;3.97;;;;;;;21.21;69.62;101729.03;10340357;28;20093;-78
2022/05/16 16:31:44;;;;;;;8.55;3.58;;;;;;;21.07;70.61;101734.84;10340364;28;20464;-77
2022/05/16 16:36:44;;;;;;;13.40;4.25;;;;;;;20.95;70.76;101725.81;10322016;28;20184;-77
2022/05/16 16:41:45;;;;;;;11.65;4.05;;;;;;;20.50;72.76;101725.72;10338865;28;20106;-76
2022/05/16 16:46:48;;;;;;;16.23;3.95;;;;;;;20.32;72.93;101721.22;10310660;28;20041;-77
2022/05/16 17:02:29;;;;;;;11.63;4.18;;;;;;;19.64;75.34;101715.28;10339378;28;20117;-77
2022/05/16 17:07:32;;;;;;;18.17;3.40;;;;;;;19.50;75.60;101730.31;10340855;28;20030;-77
2022/05/16 17:12:33;;;;;;;14.02;3.42;;;;;;;19.42;76.10;101728.72;10323690;28;20417;-76
2022/05/16 17:17:33;;;;;;;9.02;4.03;;;;;;;19.39;76.43;101739.34;10338824;28;20038;-77
2022/05/16 17:22:34;;;;;;;12.48;3.35;;;;;;;19.29;76.66;101740.75;10336889;28;20027;-76
2022/05/16 17:27:35;;;;;;;8.52;4.30;;;;;;;19.19;76.75;101750.66;10305513;28;20038;-76
2022/05/16 17:32:38;;;;;;;10.38;5.07;;;;;;;19.17;76.28;101759.13;10303914;28;20046;-77
2022/05/16 17:37:38;;;;;;;13.50;3.72;;;;;;;19.06;75.73;101751.69;10336943;28;20041;-77
2022/05/16 17:42:38;;;;;;;4.90;3.35;;;;;;;19.06;74.70;101765.41;10334751;28;20415;-76
2022/05/16 17:47:39;;;;;;;10.57;3.58;;;;;;;18.98;75.54;101758.31;10336158;28;20038;-78
2022/05/16 17:52:39;;;;;;;8.35;2.58;;;;;;;18.93;75.49;101758.19;10337303;28;20038;-76
2022/05/16 17:57:41;;;;;;;9.52;3.03;;;;;;;18.75;76.28;101758.22;10319707;28;20030;-76
2022/05/16 18:02:41;;;;;;;9.77;3.30;;;;;;;18.56;76.39;101760.97;10336720;28;20026;-77
2022/05/16 18:07:44;;;;;;;7.60;2.65;;;;;;;18.59;76.29;101770.63;10336748;28;20034;-76
2022/05/16 18:12:46;;;;;;;13.02;4.10;;;;;;;18.61;75.65;101771.25;10318932;28;20037;-76
2022/05/16 18:17:46;;;;;;;11.73;3.75;;;;;;;18.50;76.25;101778.31;10335634;28;20058;-76
2022/05/16 18:22:48;;;;;;;7.50;3.15;;;;;;;18.35;76.93;101778.72;10333789;28;20027;-76
2022/05/16 18:27:48;;;;;;;13.05;3.20;;;;;;;18.21;78.25;101790.88;10318712;28;20080;-77
2022/05/16 18:32:50;;;;;;;8.80;3.88;;;;;;;18.20;78.10;101793.88;10335677;28;20042;-76
2022/05/16 18:37:51;;;;;;;10.50;3.65;;;;;;;18.00;79.74;101785.84;10335231;28;20058;-76
2022/05/16 18:53:44;;;;;;;7.63;3.28;;;;;;;17.79;79.99;101804.34;10320063;28;20419;-77
2022/05/16 18:58:45;;;;;;;12.48;4.55;;;;;;;17.65;80.97;101822.78;10334136;28;20105;-77
2022/05/16 19:03:45;;;;;;;13.15;4.70;;;;;;;17.61;80.77;101821.53;10334835;28;20054;-76
2022/05/16 19:08:46;;;;;;;8.80;4.40;;;;;;;17.54;79.57;101819.91;10333931;28;20065;-76
2022/05/16 19:13:46;;;;;;;10.63;4.05;;;;;;;17.48;78.88;101838.03;10318334;28;20035;-76
2022/05/16 19:18:47;;;;;;;5.93;4.25;;;;;;;17.29;82.56;101844.47;10334475;28;20129;-77
2022/05/16 19:23:47;;;;;;;13.00;4.28;;;;;;;17.17;83.96;101842.44;10334468;28;20040;-76
2022/05/16 19:34:07;;;;;;;9.10;2.97;;;;;;;17.05;84.52;101846.94;10320611;28;20125;-77
2022/05/16 19:39:07;;;;;;;8.50;4.35;;;;;;;17.01;84.04;101853.06;10308842;28;20046;-76
2022/05/16 19:44:07;;;;;;;10.73;3.60;;;;;;;16.94;84.76;101861.28;10324389;28;20039;-76
2022/05/16 19:49:09;;;;;;;9.10;3.03;;;;;;;16.88;85.00;101865.72;10343633;28;20045;-76
2022/05/16 19:54:11;;;;;;;13.80;3.42;;;;;;;16.80;86.77;101863.22;10341220;28;20066;-76
2022/05/16 19:59:11;;;;;;;8.75;3.72;;;;;;;16.80;84.37;101871.44;10341295;28;20030;-76
2022/05/16 20:04:12;;;;;;;3.42;3.10;;;;;;;16.70;86.14;101874.59;10342929;28;20049;-77
2022/05/16 20:09:15;;;;;;;16.25;3.80;;;;;;;16.69;85.11;101886.59;10341210;28;20113;-76
2022/05/16 20:14:16;;;;;;;12.18;4.95;;;;;;;16.63;86.63;101897.53;10324671;28;20141;-76
2022/05/16 20:19:18;;;;;;;19.40;4.78;;;;;;;16.62;86.07;101896.69;10326088;28;20112;-77
2022/05/16 20:29:37;;;;;;;4.78;3.45;;;;;;;16.53;87.90;101906.19;10340913;28;20034;-74
2022/05/16 20:34:38;;;;;;;10.73;2.65;;;;;;;16.43;89.05;101898.41;10341188;28;20042;-77
2022/05/16 20:39:38;;;;;;;8.77;3.85;;;;;;;16.42;88.62;101899.44;10338271;28;20121;-77
2022/05/16 20:44:39;;;;;;;15.95;3.40;;;;;;;16.32;90.60;101893.56;10341437;28;20038;-76
2022/05/16 20:49:40;;;;;;;14.43;4.05;;;;;;;16.33;89.78;101900.72;10345265;28;20035;-76
2022/05/16 20:54:40;;;;;;;6.43;3.38;;;;;;;16.29;89.98;101904.94;10326749;28;20031;-75
2022/05/16 20:59:41;;;;;;;5.28;2.13;;;;;;;16.30;90.53;101898.41;10343368;28;20162;-76
2022/05/16 21:04:41;;;;;;;8.93;3.55;;;;;;;16.36;88.23;101892.09;10345849;28;20051;-75
2022/05/16 21:09:41;;;;;;;7.60;2.17;;;;;;;16.38;89.44;101892.72;10344734;28;20046;-75
2022/05/16 21:14:42;;;;;;;5.95;2.97;;;;;;;16.44;88.28;101897.34;10342093;28;20477;-75
2022/05/16 21:19:43;;;;;;;5.95;2.35;;;;;;;16.38;88.58;101894.63;10340602;28;20073;-76
2022/05/16 21:24:43;;;;;;;8.27;3.90;;;;;;;16.30;90.22;101900.31;10325102;28;20034;-75
2022/05/16 21:29:43;;;;;;;7.97;2.72;;;;;;;16.36;90.54;101900.28;10341202;28;20390;-76
2022/05/16 21:34:44;;;;;;;7.55;2.72;;;;;;;16.36;90.02;101897.56;10343882;28;20041;-75
2022/05/16 21:39:44;;;;;;;3.85;2.55;;;;;;;16.30;88.52;101895.66;10340627;28;20034;-75
2022/05/16 21:50:04;;;;;;;5.68;3.05;;;;;;;16.09;88.85;101898.63;10326546;28;20034;-77
2022/05/16 21:55:05;;;;;;;12.50;4.05;;;;;;;15.97;88.84;101899.25;10340505;28;20431;-75
2022/05/16 22:00:12;;;;;;;9.15;3.38;;;;;;;15.88;88.65;101891.47;10323330;28;20034;-75
2022/05/16 22:05:13;;;;;;;8.85;2.50;;;;;;;15.76;90.99;101902.16;10343021;28;20030;-75
2022/05/16 22:10:13;;;;;;;7.95;3.20;;;;;;;15.74;90.13;101901.53;10323879;28;20046;-76
2022/05/16 22:15:14;;;;;;;13.23;3.40;;;;;;;15.68;90.62;101905.09;10340466;28;20038;-75
2022/05/16 22:20:14;;;;;;;5.75;2.72;;;;;;;15.62;90.34;101906.72;10342963;28;20129;-76
2022/05/16 22:25:15;;;;;;;6.78;3.40;;;;;;;15.55;92.07;101903.16;10339901;28;20030;-77
2022/05/16 22:30:16;;;;;;;10.55;2.97;;;;;;;15.55;92.60;101914.91;10349403;28;20532;-77
2022/05/16 22:35:21;;;;;;;13.18;3.47;;;;;;;15.49;94.90;101913.00;10347733;28;20046;-76
2022/05/16 22:40:23;;;;;;;6.47;2.88;;;;;;;15.52;91.58;101911.75;10326786;28;20042;-76
2022/05/16 22:45:23;;;;;;;8.68;2.95;;;;;;;15.44;91.78;101912.75;10340509;28;20030;-76
2022/05/16 22:50:25;;;;;;;8.02;3.33;;;;;;;15.44;90.59;101918.22;10340537;28;20046;-76
2022/05/16 22:55:26;;;;;;;5.70;3.92;;;;;;;15.40;92.85;101918.84;10350571;28;20037;-76
2022/05/16 23:00:26;;;;;;;8.38;3.75;;;;;;;15.42;91.91;101916.75;10338771;28;20034;-75
2022/05/16 23:05:27;;;;;;;6.53;2.72;;;;;;;15.46;91.79;101920.75;10335180;28;20030;-76
2022/05/16 23:10:27;;;;;;;10.93;3.25;;;;;;;15.46;92.57;101927.03;10330693;28;20022;-76
2022/05/16 23:15:28;;;;;;;8.05;2.70;;;;;;;15.52;93.38;101928.13;10341414;28;20049;-76
2022/05/16 23:20:28;;;;;;;8.23;2.22;;;;;;;15.67;94.04;101928.84;10349477;28;20104;-76
2022/05/16 23:25:29;;;;;;;5.13;1.70;;;;;;;15.71;93.40;101937.44;10336070;28;20474;-76
2022/05/16 23:30:29;;;;;;;2.58;2.30;;;;;;;15.76;93.21;101927.59;10356126;28;20026;-76
2022/05/16 23:35:29;;;;;;;5.53;3.10;;;;;;;15.84;93.57;101936.63;10356011;28;20050;-76
2022/05/16 23:40:30;;;;;;;3.75;2.85;;;;;;;15.87;93.08;101937.06;10335779;28;20433;-75
2022/05/16 23:45:30;;;;;;;8.27;1.90;;;;;;;15.85;93.50;101924.66;10328433;28;20038;-76
2022/05/16 23:50:31;;;;;;;3.88;1.35;;;;;;;15.88;92.08;101929.72;10332091;28;20045;-76
2022/05/16 23:55:31;;;;;;;5.93;2.08;;;;;;;15.84;91.00;101933.91;10340253;28;20038;-76
